メインページ
METAR-TAF:

METAR-TAF

空港 :

Puerto Suárez, ボリビア

緯度: 18-59S, 経度: 057-49W, 海抜: 134m

現時点の気象観測

当レポートは7時間2分前の23:00(UTC)に作成
無風
気温 24°C
湿度 94%
気圧 1012 hPa
視程: 8000m
高度1300ftの雲は散在している
高度7000ftの曇り
小雨

METAR: SLPS 202300Z 00000KT 8000 -RA SCT013 OVC070 24/23 Q1012

時間: 02:02 (06:02 UTC)

予報

当レポートは2時間2分前の04:00(UTC)に作成
予報は21日の 06時(UTC)から 22日の 06時(UTC)まで有効
の風 12kt
視程: 8000m
高度500ftの千切れ雲あり
高度7000ftの曇り
21日の 13時(UTC)から 21日の 15時(UTC)まで徐々に
視程10km以上
高度1700ftの千切れ雲あり
高度7000ftの千切れ雲あり
21日の 22時(UTC)から 22日の 01時(UTC)まで徐々に
の風 5kt

TAF: SLPS 210400Z 2106/2206 18012KT 8000 RA BKN005 OVC070 TX29/2119Z TN21/2110Z BECMG 2113/2115 9999 NSW BKN017 BKN070 BECMG 2122/2201 18005KT NSC

4,000以上の空港の気象観測と天気予報(METAR報とTAF報)

利用可能な観測所は地図上に黄色い丸と赤い丸で示す。

丸の上にカーソルを重ねると観測所名を参照できる。

次にクリックすると気象観測と天気予報を参照できる。

マップの切り替え:黒色「×」印の緑ボタンをクリックして拡大、「-」印の緑ボタンをクリックして縮小、緑色の三角印をクリックして隣りの地図に切り替え


METAR-TAF: